Liberty Pride — KRAU — position and weather

sailwx.info

Track history (hours):
 
Tides and Currents Weather Stations Pressure Air Temp Water Temp Dewpoint Dewpoint Depression Visibility Wind Speed Wind Dir Waves Ship Positions

Liberty Pride

Owner: Liberty Pride Corporation, Lake Success, NY. More information available from US FCC via Universal Licensing System and Coast Guard Vessel Documentation Center.

Last reported at 2018-May-27 13:29 UTC. Time now 2018-May-27 13:31 UTC.
Position N 42°23' W 071°03'.

Length 200 m; draft 8.8 m.

Type: Cargo ship. MMSI: 368473000.

Date/timePositionNaut miles runAvg speedWind from/ knotsBaromVisibWave heightAir tempDewpointWater temp
2018-May-27 13:29N 42°23' W 071°03'0 0.0
2018-May-27 12:59N 42°23' W 071°03'0 0.0
2018-May-27 12:29N 42°23' W 071°03'0 0.0
2018-May-27 11:59N 42°23' W 071°03'0 0.0
2018-May-27 11:29N 42°23' W 071°03'0 0.0
2018-May-27 11:00N 42°23' W 071°03'0 0.0
2018-May-27 10:30N 42°23' W 071°03'0 0.0
2018-May-27 09:59N 42°23' W 071°03'0 0.4
2018-May-27 09:31N 42°23' W 071°03'2 4.2
2018-May-27 09:00N 42°21' W 071°02'4 8.1
2018-May-27 08:30N 42°20' W 070°57'611.5
2018-May-27 08:01N 42°24' W 070°51'5 9.8
2018-May-27 07:30N 42°23' W 070°44'3 6.4
2018-May-27 06:59N 42°22' W 070°40'4 8.3
2018-May-27 06:30N 42°22' W 070°34'4 8.9
2018-May-27 06:00N 42°21' W 070°28'5 9.3
2018-May-27 05:30N 42°21' W 070°22'5 9.0
2018-May-27 05:00N 42°20' W 070°16'5 9.0
2018-May-27 04:30N 42°20' W 070°10'5 9.5
2018-May-27 04:00N 42°19' W 070°04'173 6.2
2018-May-26 00:00N 40°18' W 072°48'4811.7 240 / 231010.310.8 18.911.314.8
2018-May-25 19:55N 40°27' W 073°50'611.8
2018-May-25 19:23N 40°30' W 073°57'411.7
2018-May-25 19:00N 40°33' W 074°02'611.9
2018-May-25 18:30N 40°39' W 074°04'4 7.5
2018-May-25 18:00N 40°39' W 074°09'3 5.4
2018-May-25 17:30N 40°41' W 074°08'1 1.8
2018-May-25 16:59N 40°42' W 074°09'0 0.0
2018-May-25 16:23N 40°42' W 074°09'0 0.0
2018-May-25 15:53N 40°42' W 074°09'0 0.0
2018-May-25 15:29N 40°42' W 074°09'0 0.0
2018-May-25 14:59N 40°42' W 074°09'0 0.0
2018-May-25 14:29N 40°42' W 074°09'0 0.0
2018-May-25 13:29N 40°42' W 074°09'0 0.0
2018-May-25 12:59N 40°42' W 074°09'0 0.0
2018-May-25 12:11N 40°42' W 074°09'0 0.0
2018-May-25 11:59N 40°42' W 074°09'0 0.0
2018-May-25 11:29N 40°42' W 074°09'0 0.0
2018-May-25 10:59N 40°42' W 074°09'0 0.0
2018-May-25 10:29N 40°42' W 074°09'0 0.0
2018-May-25 09:53N 40°42' W 074°09'0 0.0
2018-May-25 09:29N 40°42' W 074°09'0 0.0
2018-May-25 08:59N 40°42' W 074°09'0 0.0
2018-May-25 08:29N 40°42' W 074°09'0 0.0
2018-May-25 07:53N 40°42' W 074°09'0 0.0
2018-May-25 07:29N 40°42' W 074°09'0 0.0
2018-May-25 06:59N 40°42' W 074°09'0 0.0
2018-May-25 06:29N 40°42' W 074°09'0 0.0
2018-May-25 05:59N 40°42' W 074°09'0 0.0
2018-May-25 05:29N 40°42' W 074°09'0 0.0
2018-May-25 04:56N 40°42' W 074°09'0 0.0
2018-May-25 04:26N 40°42' W 074°09'0 0.0
2018-May-25 03:25N 40°42' W 074°09'1 1.6
2018-May-25 03:00N 40°41' W 074°08'3 5.7
2018-May-25 02:30N 40°39' W 074°08'3 7.0
2018-May-25 02:00N 40°39' W 074°04'4 8.7
2018-May-25 01:30N 40°34' W 074°02'611.2
2018-May-25 01:00N 40°30' W 073°57'612.4
2018-May-25 00:30N 40°28' W 073°50'7 6.4
2018-May-24 23:27N 40°21' W 073°46'4 8.1
2018-May-24 22:56N 40°17' W 073°46'4 8.5
2018-May-24 22:29N 40°13' W 073°45'39 8.8
2018-May-24 18:01N 39°34' W 073°47'0 9.0
2018-May-24 17:59N 39°34' W 073°47'6 8.5
2018-May-24 17:18N 39°30' W 073°52'3 8.7
2018-May-24 16:57N 39°27' W 073°54'4 9.0
2018-May-24 16:29N 39°24' W 073°57'5 9.3
2018-May-24 15:55N 39°19' W 074°01'57 8.3
2018-May-24 09:00N 38°48' W 075°03'4 7.9
2018-May-24 08:30N 38°51' W 075°05'612.5
2018-May-24 08:00N 38°57' W 075°07'713.9
2018-May-24 07:30N 39°03' W 075°10'714.0
2018-May-24 07:00N 39°10' W 075°15'612.9
2018-May-24 06:31N 39°15' W 075°19'816.0
2018-May-24 06:00N 39°21' W 075°26'817.0
2018-May-24 05:30N 39°27' W 075°34'816.4
2018-May-24 05:01N 39°35' W 075°34'713.5
2018-May-24 04:30N 39°42' W 075°31'1 1.2
2018-May-24 03:59N 39°43' W 075°31'0 0.0
2018-May-24 03:29N 39°43' W 075°31'0 0.0
2018-May-24 02:59N 39°43' W 075°31'0 0.0
2018-May-24 02:29N 39°43' W 075°31'0 0.0
2018-May-24 01:59N 39°43' W 075°31'0 0.0
2018-May-24 01:29N 39°43' W 075°31'0 0.0
2018-May-24 00:59N 39°43' W 075°31'0 0.0
2018-May-24 00:29N 39°43' W 075°31'0 0.0
2018-May-23 23:59N 39°43' W 075°31'0 0.0
2018-May-23 23:29N 39°43' W 075°31'0 0.0
2018-May-23 22:59N 39°43' W 075°31'0 0.0
2018-May-23 22:29N 39°43' W 075°31'0 0.0
2018-May-23 21:59N 39°43' W 075°31'0 0.0
2018-May-23 21:29N 39°43' W 075°31'0 0.0
2018-May-23 20:59N 39°43' W 075°31'0 0.0
2018-May-23 20:29N 39°43' W 075°31'0 0.0
2018-May-23 19:59N 39°43' W 075°31'0 0.0
2018-May-23 19:29N 39°43' W 075°31'0 0.0
2018-May-23 18:59N 39°43' W 075°31'0 0.0
2018-May-23 18:29N 39°43' W 075°31'0 0.0
2018-May-23 17:59N 39°43' W 075°31'0 0.0
2018-May-23 17:29N 39°43' W 075°31'0 0.0
2018-May-23 16:58N 39°43' W 075°31'0 0.0
2018-May-23 16:29N 39°43' W 075°31'0 0.0
2018-May-23 15:58N 39°43' W 075°31'0 0.0
2018-May-23 15:29N 39°43' W 075°31'0 0.0
2018-May-23 14:58N 39°43' W 075°31'0 0.0
2018-May-23 14:28N 39°43' W 075°31'0 0.0
2018-May-23 13:58N 39°43' W 075°31'0 0.0
2018-May-23 13:28N 39°43' W 075°31'0 0.0
2018-May-23 12:58N 39°43' W 075°31'0 0.0
2018-May-23 12:28N 39°43' W 075°31'0 0.0
2018-May-23 11:58N 39°43' W 075°31'0 0.0
2018-May-23 11:28N 39°43' W 075°31'0 0.0
2018-May-23 10:58N 39°43' W 075°31'0 0.0
2018-May-23 10:28N 39°43' W 075°31'0 0.0
2018-May-23 09:58N 39°43' W 075°31'0 0.0
2018-May-23 09:28N 39°43' W 075°31'0 0.0
2018-May-23 08:58N 39°43' W 075°31'0 0.0
2018-May-23 08:28N 39°43' W 075°31'0 0.0
2018-May-23 07:58N 39°43' W 075°31'0 0.0
2018-May-23 07:25N 39°43' W 075°31'0 0.0
2018-May-23 06:58N 39°43' W 075°31'0 0.0
2018-May-23 06:28N 39°43' W 075°31'0 0.0
2018-May-23 05:58N 39°43' W 075°31'0 0.0
2018-May-23 05:28N 39°43' W 075°31'0 0.0
2018-May-23 04:58N 39°43' W 075°31'0 0.0
2018-May-23 04:28N 39°43' W 075°31'0 0.0
2018-May-23 03:58N 39°43' W 075°31'0 0.0
2018-May-23 03:28N 39°43' W 075°31'0 0.0
2018-May-23 02:58N 39°43' W 075°31'0 0.0
2018-May-23 02:28N 39°43' W 075°31'0 0.0
2018-May-23 01:58N 39°43' W 075°31'0 0.0
2018-May-23 01:28N 39°43' W 075°31'0 0.0
2018-May-23 00:58N 39°43' W 075°31'0 0.0
2018-May-23 00:28N 39°43' W 075°31'0 0.0
2018-May-22 23:58N 39°43' W 075°31'0 0.0
2018-May-22 23:28N 39°43' W 075°31'0 0.0
2018-May-22 22:59N 39°43' W 075°31'0 0.0
2018-May-22 22:28N 39°43' W 075°31'0 0.0
2018-May-22 21:58N 39°43' W 075°31'0 0.0
2018-May-22 21:28N 39°43' W 075°31'0 0.0
2018-May-22 20:58N 39°43' W 075°31'0 0.0
2018-May-22 20:29N 39°43' W 075°31'0 0.0
2018-May-22 19:58N 39°43' W 075°31'0 0.0
2018-May-22 19:29N 39°43' W 075°31'0 0.0
2018-May-22 18:58N 39°43' W 075°31'0 0.0
2018-May-22 18:28N 39°43' W 075°31'0 0.0
2018-May-22 17:58N 39°43' W 075°31'0 0.0
2018-May-22 17:28N 39°43' W 075°31'0 0.0
2018-May-22 16:59N 39°43' W 075°31'0 0.0
2018-May-22 16:28N 39°43' W 075°31'0 0.0
2018-May-22 15:58N 39°43' W 075°31'0 0.0
2018-May-22 15:28N 39°43' W 075°31'0 0.0
2018-May-22 14:58N 39°43' W 075°31'0 0.0
2018-May-22 14:29N 39°43' W 075°31'0 0.0
2018-May-22 13:58N 39°43' W 075°31'0 0.0
2018-May-22 13:28N 39°43' W 075°31'0 0.0
2018-May-22 12:58N 39°43' W 075°31'0 0.0
2018-May-22 12:28N 39°43' W 075°31'0 0.0
2018-May-22 11:58N 39°43' W 075°31'0 0.0
2018-May-22 11:28N 39°43' W 075°31'0 0.0
2018-May-22 10:58N 39°43' W 075°31'0 0.0
2018-May-22 10:29N 39°43' W 075°31'0 0.0
2018-May-22 09:59N 39°43' W 075°31'0 0.0
2018-May-22 09:28N 39°43' W 075°31'0 0.0
2018-May-22 08:58N 39°43' W 075°31'0 0.0
2018-May-22 08:28N 39°43' W 075°31'0 0.0
2018-May-22 07:58N 39°43' W 075°31'0 0.0
2018-May-22 07:29N 39°43' W 075°31'0 0.0
2018-May-22 07:00N 39°43' W 075°31'0 0.4
2018-May-22 06:30N 39°43' W 075°31'3 5.3
2018-May-22 06:00N 39°45' W 075°29'612.7
2018-May-22 05:30N 39°49' W 075°23'611.3
2018-May-22 05:00N 39°51' W 075°16'5 9.8
2018-May-22 04:30N 39°53' W 075°10'2 3.1
2018-May-22 03:58N 39°54' W 075°08'0 0.0
2018-May-22 03:28N 39°54' W 075°08'0 0.0
2018-May-22 02:58N 39°54' W 075°08'0 0.0
2018-May-22 02:28N 39°54' W 075°08'0 0.0
2018-May-22 01:58N 39°54' W 075°08'0 0.0
2018-May-22 01:28N 39°54' W 075°08'0 0.0
2018-May-22 00:58N 39°54' W 075°08'0 0.0
2018-May-22 00:28N 39°54' W 075°08'0 0.0
2018-May-21 23:59N 39°54' W 075°08'0 0.0
2018-May-21 23:28N 39°54' W 075°08'0 0.0
2018-May-21 22:58N 39°54' W 075°08'0 0.0
2018-May-21 22:28N 39°54' W 075°08'0 0.0
2018-May-21 21:58N 39°54' W 075°08'0 0.0
2018-May-21 21:28N 39°54' W 075°08'0 0.0
2018-May-21 20:58N 39°54' W 075°08'0 0.0
2018-May-21 20:28N 39°54' W 075°08'0 0.0
2018-May-21 19:58N 39°54' W 075°08'0 0.0
2018-May-21 19:28N 39°54' W 075°08'0 0.1
2018-May-21 19:00N 39°54' W 075°08'1 1.6
2018-May-21 18:30N 39°53' W 075°09'3 5.1
2018-May-21 18:00N 39°53' W 075°12'3 6.6
2018-May-21 17:30N 39°51' W 075°16'5 9.3
2018-May-21 17:00N 39°50' W 075°22'510.5
2018-May-21 16:30N 39°47' W 075°27'611.3
2018-May-21 16:00N 39°42' W 075°31'612.0
2018-May-21 15:31N 39°37' W 075°35'611.6
2018-May-21 15:00N 39°31' W 075°33'611.5
2018-May-21 14:31N 39°26' W 075°32'612.1
2018-May-21 14:00N 39°21' W 075°27'611.8
2018-May-21 13:30N 39°17' W 075°21'612.1
2018-May-21 13:00N 39°12' W 075°17'612.8
2018-May-21 12:30N 39°07' W 075°12'612.7
2018-May-21 12:00N 39°01' W 075°09'612.7
2018-May-21 11:30N 38°55' W 075°06'611.4
2018-May-21 11:00N 38°50' W 075°03'5 9.3
2018-May-21 10:30N 38°46' W 074°60'611.6
2018-May-21 10:01N 38°42' W 074°54'4 8.9
2018-May-21 09:30N 38°38' W 074°51'1113.2
2018-May-21 08:41N 38°31' W 074°41'313.4
2018-May-21 08:28N 38°28' W 074°39'3514.2
2018-May-21 06:00N 37°54' W 074°30'10312.0 110 / 101016.4 5.4 20.016.715.0
2018-May-20 21:26N 36°59' W 076°20'512.0
2018-May-20 21:00N 36°58' W 076°26'1 0.1
2018-May-20 11:16N 36°58' W 076°26'1 1.6
2018-May-20 10:53N 36°58' W 076°26'3 9.1
2018-May-20 10:30N 36°57' W 076°22'204 9.1
2018-May-19 12:00N 33°36' W 077°00'9315.5 200 / 181020.210.8 25.222.226.2
2018-May-19 06:00N 32°42' W 078°30'10116.8 210 / 201017.6 5.4 24.023.3
2018-May-19 00:00N 31°42' W 080°06'2412.8 160 / 251013.610.8 24.820.224.8
2018-May-18 22:05N 31°29' W 080°30'  
Track history (hours):
 
Tides and Currents Weather Stations Pressure Air Temp Water Temp Dewpoint Dewpoint Depression Visibility Wind Speed Wind Dir Waves Ship Positions

Liberty Pride

Owner: Liberty Pride Corporation, Lake Success, NY. More information available from US FCC via Universal Licensing System and Coast Guard Vessel Documentation Center.

Last reported at 2018-May-27 13:29 UTC. Time now 2018-May-27 13:31 UTC.
Position N 42°23' W 071°03'.

Length 200 m; draft 8.8 m.

Type: Cargo ship. MMSI: 368473000.

Date/timePositionNaut miles runAvg speedWind from/ knotsBaromVisibWave heightAir tempDewpointWater temp
2018-May-27 13:29N 42°23' W 071°03'0 0.0
2018-May-27 12:59N 42°23' W 071°03'0 0.0
2018-May-27 12:29N 42°23' W 071°03'0 0.0
2018-May-27 11:59N 42°23' W 071°03'0 0.0
2018-May-27 11:29N 42°23' W 071°03'0 0.0
2018-May-27 11:00N 42°23' W 071°03'0 0.0
2018-May-27 10:30N 42°23' W 071°03'0 0.0
2018-May-27 09:59N 42°23' W 071°03'0 0.4
2018-May-27 09:31N 42°23' W 071°03'2 4.2
2018-May-27 09:00N 42°21' W 071°02'4 8.1
2018-May-27 08:30N 42°20' W 070°57'611.5
2018-May-27 08:01N 42°24' W 070°51'5 9.8
2018-May-27 07:30N 42°23' W 070°44'3 6.4
2018-May-27 06:59N 42°22' W 070°40'4 8.3
2018-May-27 06:30N 42°22' W 070°34'4 8.9
2018-May-27 06:00N 42°21' W 070°28'5 9.3
2018-May-27 05:30N 42°21' W 070°22'5 9.0
2018-May-27 05:00N 42°20' W 070°16'5 9.0
2018-May-27 04:30N 42°20' W 070°10'5 9.5
2018-May-27 04:00N 42°19' W 070°04'173 6.2
2018-May-26 00:00N 40°18' W 072°48'4811.7 240 / 231010.310.8 18.911.314.8
2018-May-25 19:55N 40°27' W 073°50'611.8
2018-May-25 19:23N 40°30' W 073°57'411.7
2018-May-25 19:00N 40°33' W 074°02'611.9
2018-May-25 18:30N 40°39' W 074°04'4 7.5
2018-May-25 18:00N 40°39' W 074°09'3 5.4
2018-May-25 17:30N 40°41' W 074°08'1 1.8
2018-May-25 16:59N 40°42' W 074°09'0 0.0
2018-May-25 16:23N 40°42' W 074°09'0 0.0
2018-May-25 15:53N 40°42' W 074°09'0 0.0
2018-May-25 15:29N 40°42' W 074°09'0 0.0
2018-May-25 14:59N 40°42' W 074°09'0 0.0
2018-May-25 14:29N 40°42' W 074°09'0 0.0
2018-May-25 13:29N 40°42' W 074°09'0 0.0
2018-May-25 12:59N 40°42' W 074°09'0 0.0
2018-May-25 12:11N 40°42' W 074°09'0 0.0
2018-May-25 11:59N 40°42' W 074°09'0 0.0
2018-May-25 11:29N 40°42' W 074°09'0 0.0
2018-May-25 10:59N 40°42' W 074°09'0 0.0
2018-May-25 10:29N 40°42' W 074°09'0 0.0
2018-May-25 09:53N 40°42' W 074°09'0 0.0
2018-May-25 09:29N 40°42' W 074°09'0 0.0
2018-May-25 08:59N 40°42' W 074°09'0 0.0
2018-May-25 08:29N 40°42' W 074°09'0 0.0
2018-May-25 07:53N 40°42' W 074°09'0 0.0
2018-May-25 07:29N 40°42' W 074°09'0 0.0
2018-May-25 06:59N 40°42' W 074°09'0 0.0
2018-May-25 06:29N 40°42' W 074°09'0 0.0
2018-May-25 05:59N 40°42' W 074°09'0 0.0
2018-May-25 05:29N 40°42' W 074°09'0 0.0
2018-May-25 04:56N 40°42' W 074°09'0 0.0
2018-May-25 04:26N 40°42' W 074°09'0 0.0
2018-May-25 03:25N 40°42' W 074°09'1 1.6
2018-May-25 03:00N 40°41' W 074°08'3 5.7
2018-May-25 02:30N 40°39' W 074°08'3 7.0
2018-May-25 02:00N 40°39' W 074°04'4 8.7
2018-May-25 01:30N 40°34' W 074°02'611.2
2018-May-25 01:00N 40°30' W 073°57'612.4
2018-May-25 00:30N 40°28' W 073°50'7 6.4
2018-May-24 23:27N 40°21' W 073°46'4 8.1
2018-May-24 22:56N 40°17' W 073°46'4 8.5
2018-May-24 22:29N 40°13' W 073°45'39 8.8
2018-May-24 18:01N 39°34' W 073°47'0 9.0
2018-May-24 17:59N 39°34' W 073°47'6 8.5
2018-May-24 17:18N 39°30' W 073°52'3 8.7
2018-May-24 16:57N 39°27' W 073°54'4 9.0
2018-May-24 16:29N 39°24' W 073°57'5 9.3
2018-May-24 15:55N 39°19' W 074°01'57 8.3
2018-May-24 09:00N 38°48' W 075°03'4 7.9
2018-May-24 08:30N 38°51' W 075°05'612.5
2018-May-24 08:00N 38°57' W 075°07'713.9
2018-May-24 07:30N 39°03' W 075°10'714.0
2018-May-24 07:00N 39°10' W 075°15'612.9
2018-May-24 06:31N 39°15' W 075°19'816.0
2018-May-24 06:00N 39°21' W 075°26'817.0
2018-May-24 05:30N 39°27' W 075°34'816.4
2018-May-24 05:01N 39°35' W 075°34'713.5
2018-May-24 04:30N 39°42' W 075°31'1 1.2
2018-May-24 03:59N 39°43' W 075°31'0 0.0
2018-May-24 03:29N 39°43' W 075°31'0 0.0
2018-May-24 02:59N 39°43' W 075°31'0 0.0
2018-May-24 02:29N 39°43' W 075°31'0 0.0
2018-May-24 01:59N 39°43' W 075°31'0 0.0
2018-May-24 01:29N 39°43' W 075°31'0 0.0
2018-May-24 00:59N 39°43' W 075°31'0 0.0
2018-May-24 00:29N 39°43' W 075°31'0 0.0
2018-May-23 23:59N 39°43' W 075°31'0 0.0
2018-May-23 23:29N 39°43' W 075°31'0 0.0
2018-May-23 22:59N 39°43' W 075°31'0 0.0
2018-May-23 22:29N 39°43' W 075°31'0 0.0
2018-May-23 21:59N 39°43' W 075°31'0 0.0
2018-May-23 21:29N 39°43' W 075°31'0 0.0
2018-May-23 20:59N 39°43' W 075°31'0 0.0
2018-May-23 20:29N 39°43' W 075°31'0 0.0
2018-May-23 19:59N 39°43' W 075°31'0 0.0
2018-May-23 19:29N 39°43' W 075°31'0 0.0
2018-May-23 18:59N 39°43' W 075°31'0 0.0
2018-May-23 18:29N 39°43' W 075°31'0 0.0
2018-May-23 17:59N 39°43' W 075°31'0 0.0
2018-May-23 17:29N 39°43' W 075°31'0 0.0
2018-May-23 16:58N 39°43' W 075°31'0 0.0
2018-May-23 16:29N 39°43' W 075°31'0 0.0
2018-May-23 15:58N 39°43' W 075°31'0 0.0
2018-May-23 15:29N 39°43' W 075°31'0 0.0
2018-May-23 14:58N 39°43' W 075°31'0 0.0
2018-May-23 14:28N 39°43' W 075°31'0 0.0
2018-May-23 13:58N 39°43' W 075°31'0 0.0
2018-May-23 13:28N 39°43' W 075°31'0 0.0
2018-May-23 12:58N 39°43' W 075°31'0 0.0
2018-May-23 12:28N 39°43' W 075°31'0 0.0
2018-May-23 11:58N 39°43' W 075°31'0 0.0
2018-May-23 11:28N 39°43' W 075°31'0 0.0
2018-May-23 10:58N 39°43' W 075°31'0 0.0
2018-May-23 10:28N 39°43' W 075°31'0 0.0
2018-May-23 09:58N 39°43' W 075°31'0 0.0
2018-May-23 09:28N 39°43' W 075°31'0 0.0
2018-May-23 08:58N 39°43' W 075°31'0 0.0
2018-May-23 08:28N 39°43' W 075°31'0 0.0
2018-May-23 07:58N 39°43' W 075°31'0 0.0
2018-May-23 07:25N 39°43' W 075°31'0 0.0
2018-May-23 06:58N 39°43' W 075°31'0 0.0
2018-May-23 06:28N 39°43' W 075°31'0 0.0
2018-May-23 05:58N 39°43' W 075°31'0 0.0
2018-May-23 05:28N 39°43' W 075°31'0 0.0
2018-May-23 04:58N 39°43' W 075°31'0 0.0
2018-May-23 04:28N 39°43' W 075°31'0 0.0
2018-May-23 03:58N 39°43' W 075°31'0 0.0
2018-May-23 03:28N 39°43' W 075°31'0 0.0
2018-May-23 02:58N 39°43' W 075°31'0 0.0
2018-May-23 02:28N 39°43' W 075°31'0 0.0
2018-May-23 01:58N 39°43' W 075°31'0 0.0
2018-May-23 01:28N 39°43' W 075°31'0 0.0
2018-May-23 00:58N 39°43' W 075°31'0 0.0
2018-May-23 00:28N 39°43' W 075°31'0 0.0
2018-May-22 23:58N 39°43' W 075°31'0 0.0
2018-May-22 23:28N 39°43' W 075°31'0 0.0
2018-May-22 22:59N 39°43' W 075°31'0 0.0
2018-May-22 22:28N 39°43' W 075°31'0 0.0
2018-May-22 21:58N 39°43' W 075°31'0 0.0
2018-May-22 21:28N 39°43' W 075°31'0 0.0
2018-May-22 20:58N 39°43' W 075°31'0 0.0
2018-May-22 20:29N 39°43' W 075°31'0 0.0
2018-May-22 19:58N 39°43' W 075°31'0 0.0
2018-May-22 19:29N 39°43' W 075°31'0 0.0
2018-May-22 18:58N 39°43' W 075°31'0 0.0
2018-May-22 18:28N 39°43' W 075°31'0 0.0
2018-May-22 17:58N 39°43' W 075°31'0 0.0
2018-May-22 17:28N 39°43' W 075°31'0 0.0
2018-May-22 16:59N 39°43' W 075°31'0 0.0
2018-May-22 16:28N 39°43' W 075°31'0 0.0
2018-May-22 15:58N 39°43' W 075°31'0 0.0
2018-May-22 15:28N 39°43' W 075°31'0 0.0
2018-May-22 14:58N 39°43' W 075°31'0 0.0
2018-May-22 14:29N 39°43' W 075°31'0 0.0
2018-May-22 13:58N 39°43' W 075°31'0 0.0
2018-May-22 13:28N 39°43' W 075°31'0 0.0
2018-May-22 12:58N 39°43' W 075°31'0 0.0
2018-May-22 12:28N 39°43' W 075°31'0 0.0
2018-May-22 11:58N 39°43' W 075°31'0 0.0
2018-May-22 11:28N 39°43' W 075°31'0 0.0
2018-May-22 10:58N 39°43' W 075°31'0 0.0
2018-May-22 10:29N 39°43' W 075°31'0 0.0
2018-May-22 09:59N 39°43' W 075°31'0 0.0
2018-May-22 09:28N 39°43' W 075°31'0 0.0
2018-May-22 08:58N 39°43' W 075°31'0 0.0
2018-May-22 08:28N 39°43' W 075°31'0 0.0
2018-May-22 07:58N 39°43' W 075°31'0 0.0
2018-May-22 07:29N 39°43' W 075°31'0 0.0
2018-May-22 07:00N 39°43' W 075°31'0 0.4
2018-May-22 06:30N 39°43' W 075°31'3 5.3
2018-May-22 06:00N 39°45' W 075°29'612.7
2018-May-22 05:30N 39°49' W 075°23'611.3
2018-May-22 05:00N 39°51' W 075°16'5 9.8
2018-May-22 04:30N 39°53' W 075°10'2 3.1
2018-May-22 03:58N 39°54' W 075°08'0 0.0
2018-May-22 03:28N 39°54' W 075°08'0 0.0
2018-May-22 02:58N 39°54' W 075°08'0 0.0
2018-May-22 02:28N 39°54' W 075°08'0 0.0
2018-May-22 01:58N 39°54' W 075°08'0 0.0
2018-May-22 01:28N 39°54' W 075°08'0 0.0
2018-May-22 00:58N 39°54' W 075°08'0 0.0
2018-May-22 00:28N 39°54' W 075°08'0 0.0
2018-May-21 23:59N 39°54' W 075°08'0 0.0
2018-May-21 23:28N 39°54' W 075°08'0 0.0
2018-May-21 22:58N 39°54' W 075°08'0 0.0
2018-May-21 22:28N 39°54' W 075°08'0 0.0
2018-May-21 21:58N 39°54' W 075°08'0 0.0
2018-May-21 21:28N 39°54' W 075°08'0 0.0
2018-May-21 20:58N 39°54' W 075°08'0 0.0
2018-May-21 20:28N 39°54' W 075°08'0 0.0
2018-May-21 19:58N 39°54' W 075°08'0 0.0
2018-May-21 19:28N 39°54' W 075°08'0 0.1
2018-May-21 19:00N 39°54' W 075°08'1 1.6
2018-May-21 18:30N 39°53' W 075°09'3 5.1
2018-May-21 18:00N 39°53' W 075°12'3 6.6
2018-May-21 17:30N 39°51' W 075°16'5 9.3
2018-May-21 17:00N 39°50' W 075°22'510.5
2018-May-21 16:30N 39°47' W 075°27'611.3
2018-May-21 16:00N 39°42' W 075°31'612.0
2018-May-21 15:31N 39°37' W 075°35'611.6
2018-May-21 15:00N 39°31' W 075°33'611.5
2018-May-21 14:31N 39°26' W 075°32'612.1
2018-May-21 14:00N 39°21' W 075°27'611.8
2018-May-21 13:30N 39°17' W 075°21'612.1
2018-May-21 13:00N 39°12' W 075°17'612.8
2018-May-21 12:30N 39°07' W 075°12'612.7
2018-May-21 12:00N 39°01' W 075°09'612.7
2018-May-21 11:30N 38°55' W 075°06'611.4
2018-May-21 11:00N 38°50' W 075°03'5 9.3
2018-May-21 10:30N 38°46' W 074°60'611.6
2018-May-21 10:01N 38°42' W 074°54'4 8.9
2018-May-21 09:30N 38°38' W 074°51'1113.2
2018-May-21 08:41N 38°31' W 074°41'313.4
2018-May-21 08:28N 38°28' W 074°39'3514.2
2018-May-21 06:00N 37°54' W 074°30'10312.0 110 / 101016.4 5.4 20.016.715.0
2018-May-20 21:26N 36°59' W 076°20'512.0
2018-May-20 21:00N 36°58' W 076°26'1 0.1
2018-May-20 11:16N 36°58' W 076°26'1 1.6
2018-May-20 10:53N 36°58' W 076°26'3 9.1
2018-May-20 10:30N 36°57' W 076°22'204 9.1
2018-May-19 12:00N 33°36' W 077°00'9315.5 200 / 181020.210.8 25.222.226.2
2018-May-19 06:00N 32°42' W 078°30'10116.8 210 / 201017.6 5.4 24.023.3
2018-May-19 00:00N 31°42' W 080°06'2412.8 160 / 251013.610.8 24.820.224.8
2018-May-18 22:05N 31°29' W 080°30'  

Dump ship's entire track history